sensor_id;sensor_type;location;lat;lon;timestamp;P1;durP1;ratioP1;P2;durP2;ratioP2
68993;SDS011;56054;50.968;5.816;2022-10-16T00:01:28;2.97;;;1.27;;
68993;SDS011;56054;50.968;5.816;2022-10-16T00:04:38;2.92;;;1.00;;
68993;SDS011;56054;50.968;5.816;2022-10-16T00:07:45;3.70;;;1.17;;
68993;SDS011;56054;50.968;5.816;2022-10-16T00:10:52;3.72;;;0.80;;
68993;SDS011;56054;50.968;5.816;2022-10-16T00:14:00;3.80;;;1.17;;
68993;SDS011;56054;50.968;5.816;2022-10-16T00:17:08;3.45;;;0.93;;
68993;SDS011;56054;50.968;5.816;2022-10-16T00:20:15;4.15;;;0.90;;
68993;SDS011;56054;50.968;5.816;2022-10-16T00:23:22;2.03;;;0.90;;
68993;SDS011;56054;50.968;5.816;2022-10-16T00:26:30;4.65;;;1.00;;
68993;SDS011;56054;50.968;5.816;2022-10-16T00:29:39;1.00;;;0.75;;
68993;SDS011;56054;50.968;5.816;2022-10-16T00:32:46;2.20;;;0.90;;
68993;SDS011;56054;50.968;5.816;2022-10-16T00:35:53;2.80;;;1.13;;
68993;SDS011;56054;50.968;5.816;2022-10-16T00:39:00;2.05;;;0.95;;
68993;SDS011;56054;50.968;5.816;2022-10-16T00:42:10;7.88;;;1.17;;
68993;SDS011;56054;50.968;5.816;2022-10-16T00:45:21;1.55;;;0.88;;
68993;SDS011;56054;50.968;5.816;2022-10-16T00:48:28;2.63;;;0.90;;
68993;SDS011;56054;50.968;5.816;2022-10-16T00:51:37;1.25;;;0.90;;
68993;SDS011;56054;50.968;5.816;2022-10-16T00:54:46;1.88;;;0.88;;
68993;SDS011;56054;50.968;5.816;2022-10-16T00:57:54;3.65;;;0.90;;
68993;SDS011;56054;50.968;5.816;2022-10-16T01:01:02;2.10;;;0.82;;
68993;SDS011;56054;50.968;5.816;2022-10-16T01:04:09;1.95;;;0.70;;
68993;SDS011;56054;50.968;5.816;2022-10-16T01:11:19;3.65;;;0.93;;
68993;SDS011;56054;50.968;5.816;2022-10-16T01:17:43;4.28;;;1.20;;
68993;SDS011;56054;50.968;5.816;2022-10-16T01:21:01;1.65;;;0.70;;
68993;SDS011;56054;50.968;5.816;2022-10-16T01:24:17;2.47;;;0.77;;
68993;SDS011;56054;50.968;5.816;2022-10-16T01:27:39;2.08;;;0.80;;
68993;SDS011;56054;50.968;5.816;2022-10-16T01:30:50;3.15;;;0.90;;
68993;SDS011;56054;50.968;5.816;2022-10-16T01:34:05;1.95;;;0.90;;
68993;SDS011;56054;50.968;5.816;2022-10-16T01:37:21;5.95;;;0.80;;
68993;SDS011;56054;50.968;5.816;2022-10-16T01:40:44;1.63;;;0.77;;
68993;SDS011;56054;50.968;5.816;2022-10-16T01:44:02;2.10;;;0.85;;
68993;SDS011;56054;50.968;5.816;2022-10-16T01:47:16;2.10;;;0.80;;
68993;SDS011;56054;50.968;5.816;2022-10-16T01:50:26;2.47;;;0.85;;
68993;SDS011;56054;50.968;5.816;2022-10-16T01:53:34;3.30;;;0.80;;
68993;SDS011;56054;50.968;5.816;2022-10-16T01:56:42;2.13;;;0.93;;
68993;SDS011;56054;50.968;5.816;2022-10-16T01:59:51;1.65;;;0.47;;
68993;SDS011;56054;50.968;5.816;2022-10-16T02:03:01;3.10;;;0.80;;
68993;SDS011;56054;50.968;5.816;2022-10-16T02:06:11;5.38;;;1.05;;
68993;SDS011;56054;50.968;5.816;2022-10-16T02:09:18;2.17;;;0.80;;
68993;SDS011;56054;50.968;5.816;2022-10-16T02:12:30;2.75;;;0.60;;
68993;SDS011;56054;50.968;5.816;2022-10-16T02:15:39;1.85;;;0.80;;
68993;SDS011;56054;50.968;5.816;2022-10-16T02:18:46;1.20;;;0.70;;
68993;SDS011;56054;50.968;5.816;2022-10-16T02:21:58;3.20;;;0.68;;
68993;SDS011;56054;50.968;5.816;2022-10-16T02:25:30;1.85;;;0.75;;
68993;SDS011;56054;50.968;5.816;2022-10-16T02:28:46;3.53;;;0.80;;
68993;SDS011;56054;50.968;5.816;2022-10-16T02:31:58;1.30;;;0.90;;
68993;SDS011;56054;50.968;5.816;2022-10-16T02:35:09;2.30;;;0.60;;
68993;SDS011;56054;50.968;5.816;2022-10-16T02:38:17;0.88;;;0.60;;
68993;SDS011;56054;50.968;5.816;2022-10-16T02:41:26;5.30;;;0.60;;
68993;SDS011;56054;50.968;5.816;2022-10-16T02:44:34;3.20;;;0.85;;
68993;SDS011;56054;50.968;5.816;2022-10-16T02:47:41;1.83;;;0.70;;
68993;SDS011;56054;50.968;5.816;2022-10-16T02:50:48;2.53;;;0.90;;
68993;SDS011;56054;50.968;5.816;2022-10-16T02:53:58;1.58;;;0.70;;
68993;SDS011;56054;50.968;5.816;2022-10-16T02:57:05;3.40;;;0.88;;
68993;SDS011;56054;50.968;5.816;2022-10-16T03:00:13;1.30;;;0.75;;
68993;SDS011;56054;50.968;5.816;2022-10-16T03:03:21;5.47;;;0.77;;
68993;SDS011;56054;50.968;5.816;2022-10-16T03:06:28;3.05;;;0.85;;
68993;SDS011;56054;50.968;5.816;2022-10-16T03:09:35;1.35;;;0.68;;
68993;SDS011;56054;50.968;5.816;2022-10-16T03:12:42;6.15;;;1.13;;
68993;SDS011;56054;50.968;5.816;2022-10-16T03:15:49;4.53;;;0.70;;
68993;SDS011;56054;50.968;5.816;2022-10-16T03:18:56;3.97;;;0.85;;
68993;SDS011;56054;50.968;5.816;2022-10-16T03:22:03;1.75;;;0.70;;
68993;SDS011;56054;50.968;5.816;2022-10-16T03:25:10;2.78;;;1.00;;
68993;SDS011;56054;50.968;5.816;2022-10-16T03:28:17;3.83;;;0.80;;
68993;SDS011;56054;50.968;5.816;2022-10-16T03:31:24;2.05;;;0.90;;
68993;SDS011;56054;50.968;5.816;2022-10-16T03:34:31;4.32;;;0.70;;
68993;SDS011;56054;50.968;5.816;2022-10-16T03:37:38;1.48;;;0.82;;
68993;SDS011;56054;50.968;5.816;2022-10-16T03:40:45;1.95;;;1.00;;
68993;SDS011;56054;50.968;5.816;2022-10-16T03:43:52;1.83;;;0.77;;
68993;SDS011;56054;50.968;5.816;2022-10-16T03:46:59;3.13;;;1.00;;
68993;SDS011;56054;50.968;5.816;2022-10-16T03:50:08;1.70;;;0.83;;
68993;SDS011;56054;50.968;5.816;2022-10-16T03:53:15;5.45;;;1.10;;
68993;SDS011;56054;50.968;5.816;2022-10-16T03:56:22;3.77;;;1.10;;
68993;SDS011;56054;50.968;5.816;2022-10-16T03:59:29;0.98;;;0.70;;
68993;SDS011;56054;50.968;5.816;2022-10-16T04:02:36;3.22;;;0.60;;
68993;SDS011;56054;50.968;5.816;2022-10-16T04:05:43;1.13;;;0.70;;
68993;SDS011;56054;50.968;5.816;2022-10-16T04:08:50;2.50;;;0.90;;
68993;SDS011;56054;50.968;5.816;2022-10-16T04:11:57;3.67;;;0.85;;
68993;SDS011;56054;50.968;5.816;2022-10-16T04:15:04;3.20;;;1.17;;
68993;SDS011;56054;50.968;5.816;2022-10-16T04:18:11;1.05;;;0.75;;
68993;SDS011;56054;50.968;5.816;2022-10-16T04:21:18;1.42;;;0.70;;
68993;SDS011;56054;50.968;5.816;2022-10-16T04:24:25;5.45;;;1.20;;
68993;SDS011;56054;50.968;5.816;2022-10-16T04:27:32;3.13;;;1.13;;
68993;SDS011;56054;50.968;5.816;2022-10-16T04:30:39;6.82;;;1.45;;
68993;SDS011;56054;50.968;5.816;2022-10-16T04:33:46;2.87;;;1.27;;
68993;SDS011;56054;50.968;5.816;2022-10-16T04:36:53;1.73;;;1.00;;
68993;SDS011;56054;50.968;5.816;2022-10-16T04:40:00;3.60;;;0.93;;
68993;SDS011;56054;50.968;5.816;2022-10-16T04:43:07;3.60;;;0.90;;
68993;SDS011;56054;50.968;5.816;2022-10-16T04:46:14;1.00;;;0.90;;
68993;SDS011;56054;50.968;5.816;2022-10-16T04:49:21;6.03;;;1.27;;
68993;SDS011;56054;50.968;5.816;2022-10-16T04:52:28;3.40;;;1.10;;
68993;SDS011;56054;50.968;5.816;2022-10-16T04:55:35;3.17;;;1.00;;
68993;SDS011;56054;50.968;5.816;2022-10-16T04:58:42;2.45;;;1.25;;
68993;SDS011;56054;50.968;5.816;2022-10-16T05:01:49;3.10;;;1.20;;
68993;SDS011;56054;50.968;5.816;2022-10-16T05:04:56;1.87;;;1.20;;
68993;SDS011;56054;50.968;5.816;2022-10-16T05:08:03;2.97;;;1.52;;
68993;SDS011;56054;50.968;5.816;2022-10-16T05:11:10;1.80;;;1.00;;
68993;SDS011;56054;50.968;5.816;2022-10-16T05:14:17;1.60;;;1.27;;
68993;SDS011;56054;50.968;5.816;2022-10-16T05:17:25;2.00;;;1.15;;
68993;SDS011;56054;50.968;5.816;2022-10-16T05:20:32;2.47;;;1.27;;
68993;SDS011;56054;50.968;5.816;2022-10-16T05:23:53;2.00;;;1.30;;
68993;SDS011;56054;50.968;5.816;2022-10-16T05:27:00;6.78;;;1.73;;
68993;SDS011;56054;50.968;5.816;2022-10-16T05:30:07;3.27;;;1.53;;
68993;SDS011;56054;50.968;5.816;2022-10-16T05:33:22;6.57;;;1.40;;
68993;SDS011;56054;50.968;5.816;2022-10-16T05:36:30;3.70;;;1.90;;
68993;SDS011;56054;50.968;5.816;2022-10-16T05:39:38;2.10;;;1.07;;
68993;SDS011;56054;50.968;5.816;2022-10-16T05:42:45;5.13;;;1.20;;
68993;SDS011;56054;50.968;5.816;2022-10-16T05:45:53;1.50;;;1.10;;
68993;SDS011;56054;50.968;5.816;2022-10-16T05:49:10;5.03;;;1.20;;
68993;SDS011;56054;50.968;5.816;2022-10-16T05:52:43;5.15;;;1.23;;
68993;SDS011;56054;50.968;5.816;2022-10-16T05:55:54;3.90;;;1.23;;
68993;SDS011;56054;50.968;5.816;2022-10-16T05:59:02;4.78;;;1.40;;
68993;SDS011;56054;50.968;5.816;2022-10-16T06:02:11;4.33;;;1.13;;
68993;SDS011;56054;50.968;5.816;2022-10-16T06:05:19;4.68;;;1.02;;
68993;SDS011;56054;50.968;5.816;2022-10-16T06:08:26;3.37;;;1.30;;
68993;SDS011;56054;50.968;5.816;2022-10-16T06:11:33;4.60;;;1.33;;
68993;SDS011;56054;50.968;5.816;2022-10-16T06:14:40;4.50;;;1.33;;
68993;SDS011;56054;50.968;5.816;2022-10-16T06:17:47;2.08;;;1.00;;
68993;SDS011;56054;50.968;5.816;2022-10-16T06:20:55;1.70;;;0.98;;
68993;SDS011;56054;50.968;5.816;2022-10-16T06:24:02;6.10;;;1.07;;
68993;SDS011;56054;50.968;5.816;2022-10-16T06:27:09;1.60;;;1.10;;
68993;SDS011;56054;50.968;5.816;2022-10-16T06:30:16;4.03;;;1.10;;
68993;SDS011;56054;50.968;5.816;2022-10-16T06:33:23;6.07;;;1.07;;
68993;SDS011;56054;50.968;5.816;2022-10-16T06:36:30;2.72;;;1.27;;
68993;SDS011;56054;50.968;5.816;2022-10-16T06:39:37;4.47;;;1.30;;
68993;SDS011;56054;50.968;5.816;2022-10-16T06:42:44;2.60;;;1.23;;
68993;SDS011;56054;50.968;5.816;2022-10-16T06:45:55;2.77;;;1.00;;
68993;SDS011;56054;50.968;5.816;2022-10-16T06:49:28;6.43;;;0.93;;
68993;SDS011;56054;50.968;5.816;2022-10-16T06:52:52;1.70;;;1.00;;
68993;SDS011;56054;50.968;5.816;2022-10-16T06:56:18;4.67;;;1.10;;
68993;SDS011;56054;50.968;5.816;2022-10-16T06:59:27;7.93;;;1.40;;
68993;SDS011;56054;50.968;5.816;2022-10-16T07:02:34;6.43;;;1.40;;
68993;SDS011;56054;50.968;5.816;2022-10-16T07:05:47;2.17;;;1.17;;
68993;SDS011;56054;50.968;5.816;2022-10-16T07:08:56;5.15;;;1.13;;
68993;SDS011;56054;50.968;5.816;2022-10-16T07:12:05;2.33;;;1.10;;
68993;SDS011;56054;50.968;5.816;2022-10-16T07:15:11;4.72;;;1.20;;
68993;SDS011;56054;50.968;5.816;2022-10-16T07:18:18;2.70;;;1.50;;
68993;SDS011;56054;50.968;5.816;2022-10-16T07:21:26;5.82;;;1.10;;
68993;SDS011;56054;50.968;5.816;2022-10-16T07:24:35;3.35;;;1.00;;
68993;SDS011;56054;50.968;5.816;2022-10-16T07:27:42;7.00;;;1.55;;
68993;SDS011;56054;50.968;5.816;2022-10-16T07:30:49;2.30;;;1.10;;
68993;SDS011;56054;50.968;5.816;2022-10-16T07:33:57;3.78;;;1.13;;
68993;SDS011;56054;50.968;5.816;2022-10-16T07:37:05;2.33;;;1.00;;
68993;SDS011;56054;50.968;5.816;2022-10-16T07:40:12;1.48;;;1.10;;
68993;SDS011;56054;50.968;5.816;2022-10-16T07:43:19;5.05;;;1.27;;
68993;SDS011;56054;50.968;5.816;2022-10-16T07:46:26;5.55;;;1.20;;
68993;SDS011;56054;50.968;5.816;2022-10-16T07:49:34;3.30;;;1.40;;
68993;SDS011;56054;50.968;5.816;2022-10-16T07:52:41;6.93;;;1.10;;
68993;SDS011;56054;50.968;5.816;2022-10-16T07:55:48;1.60;;;1.00;;
68993;SDS011;56054;50.968;5.816;2022-10-16T07:58:56;4.63;;;1.10;;
68993;SDS011;56054;50.968;5.816;2022-10-16T08:02:28;2.85;;;0.93;;
68993;SDS011;56054;50.968;5.816;2022-10-16T08:05:36;2.78;;;1.05;;
68993;SDS011;56054;50.968;5.816;2022-10-16T08:08:43;5.80;;;1.10;;
68993;SDS011;56054;50.968;5.816;2022-10-16T08:11:50;2.67;;;1.02;;
68993;SDS011;56054;50.968;5.816;2022-10-16T08:14:57;3.85;;;1.05;;
68993;SDS011;56054;50.968;5.816;2022-10-16T08:18:04;2.47;;;1.10;;
68993;SDS011;56054;50.968;5.816;2022-10-16T08:21:14;3.63;;;1.17;;
68993;SDS011;56054;50.968;5.816;2022-10-16T08:24:23;5.13;;;0.90;;
68993;SDS011;56054;50.968;5.816;2022-10-16T08:27:33;2.83;;;0.90;;
68993;SDS011;56054;50.968;5.816;2022-10-16T08:30:40;4.53;;;1.00;;
68993;SDS011;56054;50.968;5.816;2022-10-16T08:33:47;3.90;;;1.10;;
68993;SDS011;56054;50.968;5.816;2022-10-16T08:36:54;5.45;;;1.05;;
68993;SDS011;56054;50.968;5.816;2022-10-16T08:40:01;3.17;;;1.10;;
68993;SDS011;56054;50.968;5.816;2022-10-16T08:46:26;3.35;;;0.90;;
68993;SDS011;56054;50.968;5.816;2022-10-16T08:49:40;1.90;;;0.65;;
68993;SDS011;56054;50.968;5.816;2022-10-16T08:52:53;5.43;;;1.10;;
68993;SDS011;56054;50.968;5.816;2022-10-16T08:56:02;3.35;;;0.90;;
68993;SDS011;56054;50.968;5.816;2022-10-16T08:59:13;2.33;;;0.80;;
68993;SDS011;56054;50.968;5.816;2022-10-16T09:02:31;3.47;;;0.68;;
68993;SDS011;56054;50.968;5.816;2022-10-16T09:12:25;3.42;;;0.60;;
68993;SDS011;56054;50.968;5.816;2022-10-16T09:22:25;3.90;;;0.68;;
68993;SDS011;56054;50.968;5.816;2022-10-16T09:25:39;3.70;;;0.50;;
68993;SDS011;56054;50.968;5.816;2022-10-16T09:28:53;5.47;;;0.93;;
68993;SDS011;56054;50.968;5.816;2022-10-16T09:32:06;3.42;;;0.70;;
68993;SDS011;56054;50.968;5.816;2022-10-16T09:35:48;3.67;;;0.70;;
68993;SDS011;56054;50.968;5.816;2022-10-16T09:39:04;0.57;;;0.30;;
68993;SDS011;56054;50.968;5.816;2022-10-16T09:42:19;1.63;;;0.60;;
68993;SDS011;56054;50.968;5.816;2022-10-16T09:45:30;2.72;;;0.50;;
68993;SDS011;56054;50.968;5.816;2022-10-16T09:48:38;4.22;;;0.60;;
68993;SDS011;56054;50.968;5.816;2022-10-16T09:52:13;2.45;;;0.30;;
68993;SDS011;56054;50.968;5.816;2022-10-16T09:55:22;1.75;;;0.55;;
68993;SDS011;56054;50.968;5.816;2022-10-16T09:58:34;2.70;;;0.70;;
68993;SDS011;56054;50.968;5.816;2022-10-16T10:08:55;1.80;;;0.47;;
68993;SDS011;56054;50.968;5.816;2022-10-16T10:12:03;3.50;;;0.50;;
68993;SDS011;56054;50.968;5.816;2022-10-16T10:15:14;1.88;;;0.50;;
68993;SDS011;56054;50.968;5.816;2022-10-16T10:18:23;2.42;;;0.55;;
68993;SDS011;56054;50.968;5.816;2022-10-16T10:21:33;1.17;;;0.70;;
68993;SDS011;56054;50.968;5.816;2022-10-16T10:24:40;2.53;;;0.73;;
68993;SDS011;56054;50.968;5.816;2022-10-16T10:39:41;9.95;;;0.60;;
68993;SDS011;56054;50.968;5.816;2022-10-16T10:46:44;2.00;;;0.57;;
68993;SDS011;56054;50.968;5.816;2022-10-16T11:13:15;4.32;;;0.60;;
68993;SDS011;56054;50.968;5.816;2022-10-16T11:16:28;1.90;;;0.50;;
68993;SDS011;56054;50.968;5.816;2022-10-16T11:19:51;2.90;;;0.50;;
68993;SDS011;56054;50.968;5.816;2022-10-16T11:23:43;2.63;;;1.17;;
68993;SDS011;56054;50.968;5.816;2022-10-16T11:26:53;1.48;;;0.52;;
68993;SDS011;56054;50.968;5.816;2022-10-16T11:36:50;1.85;;;0.50;;
68993;SDS011;56054;50.968;5.816;2022-10-16T11:40:16;7.53;;;0.52;;
68993;SDS011;56054;50.968;5.816;2022-10-16T11:43:38;1.83;;;0.50;;
68993;SDS011;56054;50.968;5.816;2022-10-16T11:57:54;3.05;;;0.50;;
68993;SDS011;56054;50.968;5.816;2022-10-16T12:09:05;2.08;;;0.60;;
68993;SDS011;56054;50.968;5.816;2022-10-16T12:19:36;5.90;;;0.60;;
68993;SDS011;56054;50.968;5.816;2022-10-16T12:23:19;3.58;;;0.40;;
68993;SDS011;56054;50.968;5.816;2022-10-16T12:26:37;3.35;;;0.40;;
68993;SDS011;56054;50.968;5.816;2022-10-16T12:29:46;0.70;;;0.35;;
68993;SDS011;56054;50.968;5.816;2022-10-16T12:32:56;2.78;;;0.52;;
68993;SDS011;56054;50.968;5.816;2022-10-16T12:36:15;4.28;;;0.70;;
68993;SDS011;56054;50.968;5.816;2022-10-16T12:39:34;2.38;;;0.82;;
68993;SDS011;56054;50.968;5.816;2022-10-16T12:42:43;1.77;;;0.43;;
68993;SDS011;56054;50.968;5.816;2022-10-16T12:49:38;5.70;;;0.82;;
68993;SDS011;56054;50.968;5.816;2022-10-16T12:52:55;4.35;;;0.65;;
68993;SDS011;56054;50.968;5.816;2022-10-16T13:08:20;2.85;;;0.45;;
68993;SDS011;56054;50.968;5.816;2022-10-16T13:18:42;3.50;;;0.50;;
68993;SDS011;56054;50.968;5.816;2022-10-16T13:26:31;1.73;;;0.30;;
68993;SDS011;56054;50.968;5.816;2022-10-16T13:38:25;3.53;;;0.60;;
68993;SDS011;56054;50.968;5.816;2022-10-16T13:41:39;5.88;;;0.73;;
68993;SDS011;56054;50.968;5.816;2022-10-16T13:44:55;1.67;;;0.52;;
68993;SDS011;56054;50.968;5.816;2022-10-16T13:48:29;1.90;;;0.55;;
68993;SDS011;56054;50.968;5.816;2022-10-16T13:51:41;6.18;;;1.08;;
68993;SDS011;56054;50.968;5.816;2022-10-16T13:55:03;3.05;;;0.40;;
68993;SDS011;56054;50.968;5.816;2022-10-16T13:58:34;1.45;;;0.40;;
68993;SDS011;56054;50.968;5.816;2022-10-16T14:01:43;6.57;;;0.70;;
68993;SDS011;56054;50.968;5.816;2022-10-16T14:05:04;6.03;;;0.50;;
68993;SDS011;56054;50.968;5.816;2022-10-16T14:08:33;3.95;;;0.90;;
68993;SDS011;56054;50.968;5.816;2022-10-16T14:11:49;6.68;;;0.60;;
68993;SDS011;56054;50.968;5.816;2022-10-16T14:15:04;5.15;;;0.50;;
68993;SDS011;56054;50.968;5.816;2022-10-16T14:18:23;2.05;;;0.50;;
68993;SDS011;56054;50.968;5.816;2022-10-16T14:21:47;2.83;;;0.60;;
68993;SDS011;56054;50.968;5.816;2022-10-16T14:24:56;2.38;;;0.50;;
68993;SDS011;56054;50.968;5.816;2022-10-16T14:34:53;1.17;;;0.52;;
68993;SDS011;56054;50.968;5.816;2022-10-16T14:38:01;1.63;;;0.68;;
68993;SDS011;56054;50.968;5.816;2022-10-16T14:41:13;1.60;;;0.77;;
68993;SDS011;56054;50.968;5.816;2022-10-16T14:44:22;3.53;;;0.90;;
68993;SDS011;56054;50.968;5.816;2022-10-16T14:47:55;3.47;;;0.90;;
68993;SDS011;56054;50.968;5.816;2022-10-16T14:51:05;5.68;;;1.25;;
68993;SDS011;56054;50.968;5.816;2022-10-16T14:54:27;3.13;;;1.38;;
68993;SDS011;56054;50.968;5.816;2022-10-16T14:57:34;6.25;;;2.10;;
68993;SDS011;56054;50.968;5.816;2022-10-16T15:00:46;5.65;;;3.03;;
68993;SDS011;56054;50.968;5.816;2022-10-16T15:04:19;2.90;;;0.70;;
68993;SDS011;56054;50.968;5.816;2022-10-16T15:07:26;1.88;;;0.60;;
68993;SDS011;56054;50.968;5.816;2022-10-16T15:10:35;3.35;;;0.90;;
68993;SDS011;56054;50.968;5.816;2022-10-16T15:14:03;2.50;;;1.20;;
68993;SDS011;56054;50.968;5.816;2022-10-16T15:17:19;4.78;;;1.13;;
68993;SDS011;56054;50.968;5.816;2022-10-16T15:20:40;3.55;;;1.10;;
68993;SDS011;56054;50.968;5.816;2022-10-16T15:23:48;6.35;;;1.00;;
68993;SDS011;56054;50.968;5.816;2022-10-16T15:27:07;2.40;;;0.75;;
68993;SDS011;56054;50.968;5.816;2022-10-16T15:30:18;2.97;;;1.25;;
68993;SDS011;56054;50.968;5.816;2022-10-16T15:33:28;2.63;;;1.02;;
68993;SDS011;56054;50.968;5.816;2022-10-16T15:36:36;2.40;;;0.90;;
68993;SDS011;56054;50.968;5.816;2022-10-16T15:39:44;2.15;;;1.13;;
68993;SDS011;56054;50.968;5.816;2022-10-16T15:42:51;4.47;;;1.20;;
68993;SDS011;56054;50.968;5.816;2022-10-16T15:45:59;2.03;;;1.00;;
68993;SDS011;56054;50.968;5.816;2022-10-16T15:49:08;1.75;;;0.90;;
68993;SDS011;56054;50.968;5.816;2022-10-16T15:52:16;3.85;;;0.98;;
68993;SDS011;56054;50.968;5.816;2022-10-16T15:55:23;1.88;;;0.90;;
68993;SDS011;56054;50.968;5.816;2022-10-16T15:58:30;1.17;;;0.88;;
68993;SDS011;56054;50.968;5.816;2022-10-16T16:01:37;5.60;;;1.05;;
68993;SDS011;56054;50.968;5.816;2022-10-16T16:04:44;4.65;;;1.10;;
68993;SDS011;56054;50.968;5.816;2022-10-16T16:07:51;4.57;;;1.00;;
68993;SDS011;56054;50.968;5.816;2022-10-16T16:11:05;2.53;;;1.00;;
68993;SDS011;56054;50.968;5.816;2022-10-16T16:14:16;2.45;;;1.20;;
68993;SDS011;56054;50.968;5.816;2022-10-16T16:17:25;1.55;;;0.77;;
68993;SDS011;56054;50.968;5.816;2022-10-16T16:20:32;1.40;;;1.00;;
68993;SDS011;56054;50.968;5.816;2022-10-16T16:23:39;1.92;;;1.00;;
68993;SDS011;56054;50.968;5.816;2022-10-16T16:26:46;2.05;;;0.95;;
68993;SDS011;56054;50.968;5.816;2022-10-16T16:30:18;4.00;;;1.38;;
68993;SDS011;56054;50.968;5.816;2022-10-16T16:33:27;3.00;;;1.02;;
68993;SDS011;56054;50.968;5.816;2022-10-16T16:36:35;1.52;;;1.20;;
68993;SDS011;56054;50.968;5.816;2022-10-16T16:39:42;5.18;;;1.25;;
68993;SDS011;56054;50.968;5.816;2022-10-16T16:42:49;5.50;;;1.27;;
68993;SDS011;56054;50.968;5.816;2022-10-16T16:45:56;3.35;;;1.10;;
68993;SDS011;56054;50.968;5.816;2022-10-16T16:49:11;9.32;;;1.20;;
68993;SDS011;56054;50.968;5.816;2022-10-16T16:52:23;4.60;;;1.70;;
68993;SDS011;56054;50.968;5.816;2022-10-16T16:55:30;2.47;;;1.45;;
68993;SDS011;56054;50.968;5.816;2022-10-16T16:58:39;3.65;;;1.33;;
68993;SDS011;56054;50.968;5.816;2022-10-16T17:01:46;2.72;;;1.02;;
68993;SDS011;56054;50.968;5.816;2022-10-16T17:04:53;1.92;;;0.80;;
68993;SDS011;56054;50.968;5.816;2022-10-16T17:08:00;4.85;;;1.30;;
68993;SDS011;56054;50.968;5.816;2022-10-16T17:11:11;3.97;;;1.23;;
68993;SDS011;56054;50.968;5.816;2022-10-16T17:14:20;5.80;;;2.22;;
68993;SDS011;56054;50.968;5.816;2022-10-16T17:17:28;8.77;;;4.50;;
68993;SDS011;56054;50.968;5.816;2022-10-16T17:20:35;3.90;;;2.90;;
68993;SDS011;56054;50.968;5.816;2022-10-16T17:23:50;5.38;;;2.53;;
68993;SDS011;56054;50.968;5.816;2022-10-16T17:27:08;5.00;;;2.22;;
68993;SDS011;56054;50.968;5.816;2022-10-16T17:30:15;4.10;;;1.40;;
68993;SDS011;56054;50.968;5.816;2022-10-16T17:33:22;3.13;;;1.00;;
68993;SDS011;56054;50.968;5.816;2022-10-16T17:36:29;3.10;;;1.40;;
68993;SDS011;56054;50.968;5.816;2022-10-16T17:39:38;3.42;;;1.23;;
68993;SDS011;56054;50.968;5.816;2022-10-16T17:42:45;5.93;;;1.40;;
68993;SDS011;56054;50.968;5.816;2022-10-16T17:45:52;4.15;;;1.58;;
68993;SDS011;56054;50.968;5.816;2022-10-16T17:49:05;5.38;;;1.83;;
68993;SDS011;56054;50.968;5.816;2022-10-16T17:52:13;5.18;;;1.85;;
68993;SDS011;56054;50.968;5.816;2022-10-16T17:55:20;2.35;;;1.52;;
68993;SDS011;56054;50.968;5.816;2022-10-16T17:58:27;4.25;;;1.50;;
68993;SDS011;56054;50.968;5.816;2022-10-16T18:01:38;5.25;;;1.60;;
68993;SDS011;56054;50.968;5.816;2022-10-16T18:04:46;4.25;;;2.00;;
68993;SDS011;56054;50.968;5.816;2022-10-16T18:07:53;3.60;;;1.75;;
68993;SDS011;56054;50.968;5.816;2022-10-16T18:11:00;5.22;;;2.00;;
68993;SDS011;56054;50.968;5.816;2022-10-16T18:14:14;5.68;;;2.03;;
68993;SDS011;56054;50.968;5.816;2022-10-16T18:17:53;7.93;;;1.60;;
68993;SDS011;56054;50.968;5.816;2022-10-16T18:21:01;4.53;;;2.10;;
68993;SDS011;56054;50.968;5.816;2022-10-16T18:24:15;8.93;;;2.95;;
68993;SDS011;56054;50.968;5.816;2022-10-16T18:27:22;7.03;;;3.28;;
68993;SDS011;56054;50.968;5.816;2022-10-16T18:30:29;6.53;;;2.67;;
68993;SDS011;56054;50.968;5.816;2022-10-16T18:33:38;3.88;;;2.15;;
68993;SDS011;56054;50.968;5.816;2022-10-16T18:36:48;6.35;;;2.40;;
68993;SDS011;56054;50.968;5.816;2022-10-16T18:39:55;5.30;;;2.30;;
68993;SDS011;56054;50.968;5.816;2022-10-16T18:43:03;5.10;;;2.40;;
68993;SDS011;56054;50.968;5.816;2022-10-16T18:46:18;8.23;;;4.55;;
68993;SDS011;56054;50.968;5.816;2022-10-16T18:49:26;8.57;;;4.30;;
68993;SDS011;56054;50.968;5.816;2022-10-16T18:52:38;6.85;;;4.45;;
68993;SDS011;56054;50.968;5.816;2022-10-16T18:55:53;4.70;;;3.13;;
68993;SDS011;56054;50.968;5.816;2022-10-16T18:59:00;4.15;;;2.90;;
68993;SDS011;56054;50.968;5.816;2022-10-16T19:02:10;5.07;;;2.83;;
68993;SDS011;56054;50.968;5.816;2022-10-16T19:05:18;4.57;;;2.75;;
68993;SDS011;56054;50.968;5.816;2022-10-16T19:08:28;8.10;;;3.20;;
68993;SDS011;56054;50.968;5.816;2022-10-16T19:11:41;6.20;;;2.92;;
68993;SDS011;56054;50.968;5.816;2022-10-16T19:14:49;7.55;;;3.33;;
68993;SDS011;56054;50.968;5.816;2022-10-16T19:17:56;6.18;;;3.30;;
68993;SDS011;56054;50.968;5.816;2022-10-16T19:21:07;6.03;;;3.47;;
68993;SDS011;56054;50.968;5.816;2022-10-16T19:24:15;8.05;;;4.32;;
68993;SDS011;56054;50.968;5.816;2022-10-16T19:27:22;6.13;;;4.10;;
68993;SDS011;56054;50.968;5.816;2022-10-16T19:30:29;6.15;;;2.97;;
68993;SDS011;56054;50.968;5.816;2022-10-16T19:33:36;4.60;;;3.05;;
68993;SDS011;56054;50.968;5.816;2022-10-16T19:36:53;5.40;;;2.97;;
68993;SDS011;56054;50.968;5.816;2022-10-16T19:40:00;5.43;;;3.03;;
68993;SDS011;56054;50.968;5.816;2022-10-16T19:43:07;6.47;;;3.00;;
68993;SDS011;56054;50.968;5.816;2022-10-16T19:46:19;4.95;;;3.30;;
68993;SDS011;56054;50.968;5.816;2022-10-16T19:49:34;6.90;;;3.50;;
68993;SDS011;56054;50.968;5.816;2022-10-16T19:52:41;4.88;;;3.40;;
68993;SDS011;56054;50.968;5.816;2022-10-16T19:56:20;7.53;;;3.58;;
68993;SDS011;56054;50.968;5.816;2022-10-16T19:59:31;5.40;;;3.17;;
68993;SDS011;56054;50.968;5.816;2022-10-16T20:02:38;8.20;;;3.75;;
68993;SDS011;56054;50.968;5.816;2022-10-16T20:06:11;5.90;;;3.50;;
68993;SDS011;56054;50.968;5.816;2022-10-16T20:09:23;5.43;;;3.58;;
68993;SDS011;56054;50.968;5.816;2022-10-16T20:12:39;5.78;;;3.22;;
68993;SDS011;56054;50.968;5.816;2022-10-16T20:15:47;4.88;;;3.13;;
68993;SDS011;56054;50.968;5.816;2022-10-16T20:18:59;5.60;;;3.47;;
68993;SDS011;56054;50.968;5.816;2022-10-16T20:22:09;4.72;;;3.00;;
68993;SDS011;56054;50.968;5.816;2022-10-16T20:25:19;7.40;;;3.00;;
68993;SDS011;56054;50.968;5.816;2022-10-16T20:28:26;8.60;;;4.20;;
68993;SDS011;56054;50.968;5.816;2022-10-16T20:31:45;5.82;;;3.65;;
68993;SDS011;56054;50.968;5.816;2022-10-16T20:34:52;7.85;;;3.65;;
68993;SDS011;56054;50.968;5.816;2022-10-16T20:38:08;7.95;;;3.63;;
68993;SDS011;56054;50.968;5.816;2022-10-16T20:41:22;6.32;;;3.67;;
68993;SDS011;56054;50.968;5.816;2022-10-16T20:44:30;7.72;;;3.80;;
68993;SDS011;56054;50.968;5.816;2022-10-16T20:48:04;5.43;;;3.50;;
68993;SDS011;56054;50.968;5.816;2022-10-16T20:51:16;6.22;;;3.97;;
68993;SDS011;56054;50.968;5.816;2022-10-16T20:54:29;5.25;;;3.03;;
68993;SDS011;56054;50.968;5.816;2022-10-16T20:57:45;7.78;;;3.17;;
68993;SDS011;56054;50.968;5.816;2022-10-16T21:00:52;5.18;;;2.72;;
68993;SDS011;56054;50.968;5.816;2022-10-16T21:04:33;5.43;;;3.13;;
68993;SDS011;56054;50.968;5.816;2022-10-16T21:07:40;6.95;;;2.95;;
68993;SDS011;56054;50.968;5.816;2022-10-16T21:10:47;7.10;;;3.80;;
68993;SDS011;56054;50.968;5.816;2022-10-16T21:13:55;8.63;;;3.08;;
68993;SDS011;56054;50.968;5.816;2022-10-16T21:17:30;9.43;;;3.00;;
68993;SDS011;56054;50.968;5.816;2022-10-16T21:20:43;6.40;;;3.35;;
68993;SDS011;56054;50.968;5.816;2022-10-16T21:23:59;8.15;;;3.65;;
68993;SDS011;56054;50.968;5.816;2022-10-16T21:27:06;6.25;;;3.22;;
68993;SDS011;56054;50.968;5.816;2022-10-16T21:30:13;6.13;;;3.60;;
68993;SDS011;56054;50.968;5.816;2022-10-16T21:33:20;6.20;;;3.50;;
68993;SDS011;56054;50.968;5.816;2022-10-16T21:36:41;5.95;;;2.90;;
68993;SDS011;56054;50.968;5.816;2022-10-16T21:39:54;5.90;;;3.13;;